createdAt,value
2019-03-28T00:01:58.628Z,19.93
2019-03-28T00:04:24.556Z,19.30
2019-03-28T00:06:50.508Z,19.00
2019-03-28T00:09:16.340Z,19.03
2019-03-28T00:11:42.229Z,19.73
2019-03-28T00:14:08.052Z,22.07
2019-03-28T00:16:33.899Z,18.40
2019-03-28T00:18:59.787Z,17.43
2019-03-28T00:21:26.290Z,39.77
2019-03-28T00:23:59.891Z,18.73
2019-03-28T00:26:30.558Z,20.43
2019-03-28T00:28:53.609Z,19.93
2019-03-28T00:32:09.074Z,20.80
2019-03-28T00:34:35.361Z,18.67
2019-03-28T00:37:01.403Z,19.93
2019-03-28T00:39:27.379Z,18.90
2019-03-28T00:41:53.217Z,21.43
2019-03-28T00:44:19.160Z,17.93
2019-03-28T00:46:45.741Z,19.53
2019-03-28T00:49:11.940Z,18.77
2019-03-28T00:51:37.771Z,17.87
2019-03-28T00:54:03.645Z,19.10
2019-03-28T00:56:42.701Z,18.23
2019-03-28T00:58:57.379Z,19.33
2019-03-28T01:01:23.292Z,19.07
2019-03-28T01:03:49.125Z,20.50
2019-03-28T01:06:15.104Z,20.33
2019-03-28T01:08:41.094Z,20.30
2019-03-28T01:11:06.934Z,22.00
2019-03-28T01:13:32.770Z,21.13
2019-03-28T01:15:58.718Z,19.23
2019-03-28T01:18:24.613Z,18.60
2019-03-28T01:20:51.217Z,18.27
2019-03-28T01:23:17.305Z,19.57
2019-03-28T01:25:43.185Z,19.03
2019-03-28T01:28:09.005Z,17.17
2019-03-28T01:30:34.941Z,17.87
2019-03-28T01:33:01.723Z,16.53
2019-03-28T01:35:27.571Z,16.00
2019-03-28T01:37:54.369Z,17.13
2019-03-28T01:40:20.514Z,19.13
2019-03-28T01:42:46.361Z,15.63
2019-03-28T01:45:12.685Z,14.93
2019-03-28T01:47:38.677Z,16.63
2019-03-28T01:50:04.807Z,13.10
2019-03-28T01:52:30.681Z,15.10
2019-03-28T01:54:56.529Z,14.30
2019-03-28T01:57:22.380Z,13.00
2019-03-28T01:59:48.260Z,16.33
2019-03-28T02:02:14.085Z,13.73
2019-03-28T02:04:40.000Z,14.00
2019-03-28T02:07:05.885Z,11.67
2019-03-28T02:09:32.326Z,8.03
2019-03-28T02:11:58.355Z,9.97
2019-03-28T02:14:24.230Z,9.57
2019-03-28T02:16:50.173Z,10.10
2019-03-28T02:19:16.018Z,7.97
2019-03-28T02:21:41.847Z,9.67
2019-03-28T02:24:07.776Z,9.10
2019-03-28T02:26:34.243Z,8.90
2019-03-28T02:29:00.301Z,12.03
2019-03-28T02:31:26.138Z,11.77
2019-03-28T02:33:51.984Z,21.73
2019-03-28T02:36:17.870Z,12.60
2019-03-28T02:38:43.713Z,14.87
2019-03-28T02:41:09.567Z,15.47
2019-03-28T02:43:35.520Z,17.03
2019-03-28T02:46:01.349Z,16.53
2019-03-28T02:48:27.800Z,16.37
2019-03-28T02:50:53.949Z,19.57
2019-03-28T02:53:19.845Z,15.93
2019-03-28T02:55:45.689Z,19.17
2019-03-28T02:58:11.540Z,18.80
2019-03-28T03:00:37.391Z,20.07
2019-03-28T03:03:03.430Z,21.13
2019-03-28T03:05:29.406Z,17.67
2019-03-28T03:07:55.248Z,18.97
2019-03-28T03:10:21.116Z,16.90
2019-03-28T03:12:46.949Z,19.03
2019-03-28T03:15:13.392Z,17.63
2019-03-28T03:17:39.378Z,19.20
2019-03-28T03:20:05.924Z,18.53
2019-03-28T03:22:31.775Z,18.90
2019-03-28T03:24:57.676Z,19.57
2019-03-28T03:27:23.506Z,21.93
2019-03-28T03:29:49.446Z,22.33
2019-03-28T03:32:15.309Z,16.83
2019-03-28T03:34:41.200Z,17.70
2019-03-28T03:37:07.190Z,17.03
2019-03-28T03:39:33.017Z,20.90
2019-03-28T03:41:59.056Z,17.43
2019-03-28T03:44:24.959Z,20.60
2019-03-28T03:46:50.788Z,16.17
2019-03-28T03:49:18.658Z,18.07
2019-03-28T03:51:46.624Z,20.40
2019-03-28T03:54:12.519Z,16.80
2019-03-28T03:56:38.356Z,16.90
2019-03-28T03:59:04.297Z,19.33
2019-03-28T04:01:30.244Z,16.57
2019-03-28T04:03:56.297Z,16.27
2019-03-28T04:06:22.225Z,22.83
2019-03-28T04:08:48.103Z,18.00
2019-03-28T04:11:14.112Z,17.80
2019-03-28T04:13:40.033Z,17.27
2019-03-28T04:16:06.016Z,19.17
2019-03-28T04:18:31.946Z,18.07
2019-03-28T04:20:58.432Z,18.37
2019-03-28T04:23:24.335Z,19.40
2019-03-28T04:25:50.294Z,18.83
2019-03-28T04:28:30.846Z,16.63
2019-03-28T04:30:44.005Z,19.80
2019-03-28T04:33:09.905Z,17.90
2019-03-28T04:35:35.800Z,19.73
2019-03-28T04:38:01.705Z,18.10
2019-03-28T04:40:27.601Z,17.80
2019-03-28T04:42:53.495Z,23.03
2019-03-28T04:45:19.533Z,20.57
2019-03-28T04:47:45.450Z,17.77
2019-03-28T04:50:11.902Z,17.17
2019-03-28T04:52:37.819Z,18.10
2019-03-28T04:55:05.230Z,18.33
2019-03-28T04:57:31.237Z,17.90
2019-03-28T04:59:57.151Z,19.60
2019-03-28T05:02:23.033Z,19.20
2019-03-28T05:04:49.057Z,18.93
2019-03-28T05:07:14.942Z,20.37
2019-03-28T05:09:40.865Z,20.20
2019-03-28T05:12:06.738Z,17.60
2019-03-28T05:14:32.636Z,18.40
2019-03-28T05:16:58.575Z,25.63
2019-03-28T05:19:24.483Z,18.40
2019-03-28T05:21:50.403Z,23.13
2019-03-28T05:24:16.336Z,21.70
2019-03-28T05:26:42.241Z,14.90
2019-03-28T05:29:08.149Z,20.07
2019-03-28T05:31:34.412Z,19.30
2019-03-28T05:34:00.495Z,22.00
2019-03-28T05:36:26.692Z,18.37
2019-03-28T05:38:52.612Z,19.87
2019-03-28T05:41:18.511Z,22.20
2019-03-28T05:43:45.552Z,20.13
2019-03-28T05:46:11.702Z,19.20
2019-03-28T05:48:37.650Z,16.47
2019-03-28T05:51:03.761Z,17.13
2019-03-28T05:53:29.609Z,19.73
2019-03-28T05:55:55.444Z,21.67
2019-03-28T05:58:21.356Z,21.37
2019-03-28T06:00:51.150Z,27.30
2019-03-28T06:03:14.996Z,18.60
2019-03-28T06:05:40.863Z,19.23
2019-03-28T06:08:06.699Z,22.17
2019-03-28T06:10:32.562Z,21.77
2019-03-28T06:12:58.401Z,18.90
2019-03-28T06:15:26.142Z,20.90
2019-03-28T06:17:52.127Z,19.17
2019-03-28T06:20:18.055Z,20.10
2019-03-28T06:22:43.921Z,19.57
2019-03-28T06:25:09.900Z,16.93
2019-03-28T06:27:35.815Z,20.73
2019-03-28T06:30:02.610Z,20.57
2019-03-28T06:32:41.993Z,17.80
2019-03-28T06:34:56.285Z,17.07
2019-03-28T06:37:22.312Z,21.87
2019-03-28T06:39:48.169Z,22.47
2019-03-28T06:42:14.007Z,20.53
2019-03-28T06:44:39.886Z,23.60
2019-03-28T06:47:05.709Z,21.07
2019-03-28T06:49:31.654Z,19.23
2019-03-28T06:51:57.504Z,18.33
2019-03-28T06:54:24.463Z,24.93
2019-03-28T06:56:50.523Z,23.97
2019-03-28T06:59:16.563Z,22.00
2019-03-28T07:01:42.394Z,21.57
2019-03-28T07:04:08.358Z,24.23
2019-03-28T07:06:34.324Z,22.73
2019-03-28T07:09:00.138Z,18.90
2019-03-28T07:11:26.089Z,19.70
2019-03-28T07:13:51.927Z,19.27
2019-03-28T07:16:20.924Z,22.13
2019-03-28T07:18:45.550Z,20.10
2019-03-28T07:21:11.569Z,20.10
2019-03-28T07:23:37.446Z,24.80
2019-03-28T07:26:03.323Z,19.33
2019-03-28T07:28:29.189Z,17.70
2019-03-28T07:30:55.126Z,23.20
2019-03-28T07:33:21.145Z,22.83
2019-03-28T07:35:47.072Z,18.90
2019-03-28T07:38:12.899Z,23.23
2019-03-28T07:40:38.840Z,21.37
2019-03-28T07:43:04.762Z,16.83
2019-03-28T07:45:30.747Z,16.20
2019-03-28T07:47:56.587Z,19.00
2019-03-28T07:50:22.597Z,15.33
2019-03-28T07:52:48.568Z,16.60
2019-03-28T07:55:16.478Z,14.77
2019-03-28T07:57:42.312Z,15.43
2019-03-28T08:00:10.132Z,15.47
2019-03-28T08:02:35.959Z,16.97
2019-03-28T08:05:03.820Z,22.43
2019-03-28T08:07:29.774Z,14.00
2019-03-28T08:09:55.606Z,14.70
2019-03-28T08:12:23.228Z,13.60
2019-03-28T08:14:49.195Z,20.57
2019-03-28T08:17:15.093Z,15.13
2019-03-28T08:19:41.681Z,14.80
2019-03-28T08:22:07.606Z,13.43
2019-03-28T08:24:33.487Z,13.33
2019-03-28T08:26:59.310Z,14.07
2019-03-28T08:29:25.259Z,16.10
2019-03-28T08:31:52.762Z,11.63
2019-03-28T08:34:18.885Z,13.40
2019-03-28T08:36:45.633Z,16.20
2019-03-28T08:39:11.535Z,13.80
2019-03-28T08:41:37.381Z,13.80
2019-03-28T08:44:03.432Z,15.53
2019-03-28T08:46:29.435Z,14.53
2019-03-28T08:48:55.254Z,13.03
2019-03-28T08:51:21.243Z,15.37
2019-03-28T08:53:47.097Z,13.33
2019-03-28T08:56:12.955Z,15.47
2019-03-28T08:58:38.779Z,12.80
2019-03-28T09:01:05.884Z,14.40
2019-03-28T09:03:32.107Z,14.33
2019-03-28T09:05:57.942Z,18.20
2019-03-28T09:08:23.810Z,16.00
2019-03-28T09:10:49.640Z,13.97
2019-03-28T09:13:15.601Z,13.93
2019-03-28T09:15:44.114Z,17.93
2019-03-28T09:18:09.732Z,14.17
2019-03-28T09:20:35.586Z,14.43
2019-03-28T09:23:01.562Z,12.90
2019-03-28T09:25:27.480Z,16.90
2019-03-28T09:27:53.412Z,14.07
2019-03-28T09:30:48.095Z,13.87
2019-03-28T09:33:05.433Z,13.33
2019-03-28T09:35:31.504Z,14.77
2019-03-28T09:37:57.501Z,14.07
2019-03-28T09:40:23.461Z,16.90
2019-03-28T09:42:49.498Z,13.83
2019-03-28T09:45:15.579Z,14.37
2019-03-28T09:47:41.508Z,16.00
2019-03-28T09:50:07.875Z,19.10
2019-03-28T09:52:33.735Z,13.53
2019-03-28T09:54:59.662Z,18.13
2019-03-28T09:57:25.500Z,19.43
2019-03-28T09:59:51.548Z,18.07
2019-03-28T10:02:17.426Z,13.87
2019-03-28T10:04:43.254Z,15.37
2019-03-28T10:07:09.156Z,17.30
2019-03-28T10:09:35.450Z,16.30
2019-03-28T10:12:01.474Z,14.80
2019-03-28T10:14:27.442Z,15.90
2019-03-28T10:16:53.276Z,14.23
2019-03-28T10:19:19.329Z,18.93
2019-03-28T10:21:45.255Z,15.37
2019-03-28T10:24:11.623Z,13.20
2019-03-28T10:26:37.737Z,13.80
2019-03-28T10:29:03.731Z,19.93
2019-03-28T10:31:29.749Z,17.07
2019-03-28T10:33:55.696Z,15.93
2019-03-28T10:36:21.575Z,18.27
2019-03-28T10:38:47.470Z,15.93
2019-03-28T10:41:13.382Z,18.03
2019-03-28T10:43:39.352Z,15.90
2019-03-28T10:46:05.363Z,17.13
2019-03-28T10:48:31.409Z,19.70
2019-03-28T10:50:57.395Z,16.37
2019-03-28T10:53:29.825Z,17.63
2019-03-28T10:55:54.362Z,17.80
2019-03-28T10:58:20.482Z,17.90
2019-03-28T11:00:46.496Z,17.43
2019-03-28T11:03:12.469Z,19.80
2019-03-28T11:05:38.422Z,18.03
2019-03-28T11:08:04.430Z,16.03
2019-03-28T11:10:30.734Z,18.90
2019-03-28T11:12:56.752Z,21.20
2019-03-28T11:15:22.856Z,20.00
2019-03-28T11:17:48.933Z,21.80
2019-03-28T11:20:15.047Z,18.30
2019-03-28T11:22:41.022Z,17.60
2019-03-28T11:25:07.152Z,19.00
2019-03-28T11:27:33.258Z,20.60
2019-03-28T11:29:59.547Z,17.07
2019-03-28T11:32:25.656Z,17.70
2019-03-28T11:34:51.657Z,19.03
2019-03-28T11:37:26.068Z,16.00
2019-03-28T11:39:46.641Z,19.17
2019-03-28T11:42:12.895Z,21.13
2019-03-28T11:44:38.763Z,18.50
2019-03-28T11:47:04.608Z,16.97
2019-03-28T11:49:30.522Z,18.93
2019-03-28T11:51:56.565Z,17.40
2019-03-28T11:54:22.529Z,20.13
2019-03-28T11:56:48.538Z,26.87
2019-03-28T11:59:14.484Z,16.93
2019-03-28T12:01:40.412Z,20.33
2019-03-28T12:04:06.335Z,18.10
2019-03-28T12:06:32.368Z,19.40
2019-03-28T12:08:58.210Z,19.23
2019-03-28T12:11:24.102Z,16.70
2019-03-28T12:13:50.041Z,21.20
2019-03-28T12:16:16.995Z,17.37
2019-03-28T12:18:43.167Z,19.13
2019-03-28T12:21:09.237Z,18.07
2019-03-28T12:23:35.128Z,19.53
2019-03-28T12:26:01.150Z,19.73
2019-03-28T12:28:27.223Z,19.60
2019-03-28T12:30:53.115Z,22.27
2019-03-28T12:33:19.318Z,18.60
2019-03-28T12:35:45.184Z,20.67
2019-03-28T12:38:11.089Z,25.23
2019-03-28T12:40:37.036Z,20.10
2019-03-28T12:43:03.050Z,18.13
2019-03-28T12:45:29.035Z,22.33
2019-03-28T12:47:54.876Z,23.80
2019-03-28T12:50:20.870Z,20.83
2019-03-28T12:52:46.816Z,22.17
2019-03-28T12:55:12.962Z,21.73
2019-03-28T12:57:38.891Z,18.43
2019-03-28T13:00:06.850Z,22.57
2019-03-28T13:02:33.017Z,16.10
2019-03-28T13:04:59.165Z,19.93
2019-03-28T13:07:25.607Z,16.70
2019-03-28T13:09:51.713Z,18.20
2019-03-28T13:12:17.651Z,17.90
2019-03-28T13:14:43.462Z,15.13
2019-03-28T13:17:09.453Z,16.23
2019-03-28T13:19:35.366Z,16.82
2019-03-28T13:22:02.435Z,15.65
2019-03-28T13:24:28.684Z,16.30
2019-03-28T13:26:54.579Z,15.28
2019-03-28T13:29:20.696Z,13.88
2019-03-28T13:31:46.616Z,15.40
2019-03-28T13:34:12.462Z,20.30
2019-03-28T13:36:38.391Z,14.15
2019-03-28T13:39:05.192Z,14.73
2019-03-28T13:41:31.308Z,16.52
2019-03-28T13:43:57.504Z,12.80
2019-03-28T13:46:23.437Z,17.00
2019-03-28T13:48:49.285Z,16.07
2019-03-28T13:51:15.145Z,17.92
2019-03-28T13:53:41.075Z,16.37
2019-03-28T13:56:07.003Z,20.32
2019-03-28T13:58:32.953Z,18.62
2019-03-28T14:00:59.008Z,17.95
2019-03-28T14:03:26.730Z,18.73
2019-03-28T14:05:52.664Z,14.03
2019-03-28T14:08:18.609Z,15.38
2019-03-28T14:10:44.783Z,18.62
2019-03-28T14:13:10.715Z,15.88
2019-03-28T14:15:36.649Z,21.15
2019-03-28T14:18:02.786Z,18.77
2019-03-28T14:20:28.796Z,16.20
2019-03-28T14:22:54.760Z,18.42
2019-03-28T14:25:20.825Z,18.48
2019-03-28T14:27:46.940Z,17.92
2019-03-28T14:30:12.982Z,21.15
2019-03-28T14:32:52.121Z,17.07
2019-03-28T14:35:06.868Z,17.87
2019-03-28T14:37:32.901Z,15.28
2019-03-28T14:39:59.102Z,15.78
2019-03-28T14:42:25.063Z,21.73
2019-03-28T14:44:50.993Z,19.32
2019-03-28T14:47:16.894Z,16.90
2019-03-28T14:49:42.891Z,16.17
2019-03-28T14:52:09.104Z,17.17
2019-03-28T14:54:35.165Z,19.15
2019-03-28T14:57:01.786Z,18.55
2019-03-28T14:59:32.687Z,16.77
2019-03-28T15:01:55.729Z,15.58
2019-03-28T15:04:21.630Z,18.85
2019-03-28T15:06:47.678Z,16.30
2019-03-28T15:09:13.553Z,16.73
2019-03-28T15:11:39.569Z,15.88
2019-03-28T15:14:05.587Z,18.10
2019-03-28T15:16:31.489Z,18.52
2019-03-28T15:18:57.405Z,18.90
2019-03-28T15:21:23.463Z,19.12
2019-03-28T15:23:49.329Z,18.67
2019-03-28T15:26:15.321Z,16.35
2019-03-28T15:28:41.229Z,18.00
2019-03-28T15:31:07.339Z,21.55
2019-03-28T15:33:39.317Z,16.25
2019-03-28T15:36:01.125Z,21.73
2019-03-28T15:38:27.065Z,18.70
2019-03-28T15:40:52.980Z,17.50
2019-03-28T15:43:18.903Z,18.57
2019-03-28T15:45:44.832Z,20.52
2019-03-28T15:48:11.002Z,19.32
2019-03-28T15:50:36.895Z,16.87
2019-03-28T15:53:02.925Z,16.00
2019-03-28T15:55:28.911Z,33.55
2019-03-28T15:57:54.815Z,18.45
2019-03-28T16:00:20.951Z,22.75
2019-03-28T16:02:46.905Z,33.48
2019-03-28T16:05:12.890Z,16.80
2019-03-28T16:07:38.741Z,23.02
2019-03-28T16:10:09.751Z,20.02
2019-03-28T16:12:35.848Z,21.00
2019-03-28T16:15:03.147Z,19.05
2019-03-28T16:17:29.247Z,20.62
2019-03-28T16:19:55.235Z,20.90
2019-03-28T16:22:21.214Z,21.97
2019-03-28T16:24:47.128Z,21.70
2019-03-28T16:27:13.136Z,22.17
2019-03-28T16:29:39.198Z,21.97
2019-03-28T16:32:05.196Z,24.90
2019-03-28T16:34:31.082Z,21.03
2019-03-28T16:36:57.069Z,23.97
2019-03-28T16:39:22.992Z,24.23
2019-03-28T16:41:49.629Z,20.13
2019-03-28T16:44:15.954Z,27.13
2019-03-28T16:46:41.970Z,22.60
2019-03-28T16:49:08.287Z,25.00
2019-03-28T16:51:34.486Z,23.93
2019-03-28T16:54:01.599Z,22.93
2019-03-28T16:56:28.087Z,21.00
2019-03-28T16:58:55.526Z,22.50
2019-03-28T17:01:21.985Z,23.67
2019-03-28T17:03:47.895Z,22.67
2019-03-28T17:06:13.986Z,22.43
2019-03-28T17:08:44.077Z,26.63
2019-03-28T17:11:12.176Z,23.43
2019-03-28T17:13:38.141Z,24.47
2019-03-28T17:16:04.284Z,24.77
2019-03-28T17:18:31.274Z,20.20
2019-03-28T17:20:57.619Z,22.20
2019-03-28T17:23:23.683Z,24.00
2019-03-28T17:25:49.612Z,22.33
2019-03-28T17:28:15.712Z,25.53
2019-03-28T17:30:41.956Z,23.50
2019-03-28T17:33:07.863Z,24.33
2019-03-28T17:35:33.773Z,27.97
2019-03-28T17:37:59.815Z,22.73
2019-03-28T17:40:25.747Z,22.83
2019-03-28T17:42:51.698Z,20.07
2019-03-28T17:45:17.615Z,20.20
2019-03-28T17:47:43.493Z,23.07
2019-03-28T17:50:09.877Z,21.33
2019-03-28T17:52:36.021Z,25.20
2019-03-28T17:55:03.676Z,23.20
2019-03-28T17:57:29.867Z,27.20
2019-03-28T17:59:55.765Z,22.43
2019-03-28T18:02:21.875Z,26.47
2019-03-28T18:04:48.417Z,24.83
2019-03-28T18:07:14.343Z,25.30
2019-03-28T18:09:40.438Z,26.53
2019-03-28T18:12:06.251Z,26.27
2019-03-28T18:14:32.224Z,26.73
2019-03-28T18:16:59.558Z,22.70
2019-03-28T18:19:25.559Z,24.23
2019-03-28T18:22:02.766Z,26.20
2019-03-28T18:24:19.766Z,21.23
2019-03-28T18:26:45.751Z,27.90
2019-03-28T18:29:11.690Z,25.17
2019-03-28T18:31:49.688Z,28.77
2019-03-28T18:34:05.520Z,21.67
2019-03-28T18:36:31.372Z,26.97
2019-03-28T18:38:57.459Z,30.90
2019-03-28T18:41:23.566Z,27.67
2019-03-28T18:43:49.861Z,32.97
2019-03-28T18:46:15.978Z,25.87
2019-03-28T18:48:42.030Z,32.07
2019-03-28T18:51:08.144Z,31.30
2019-03-28T18:53:34.106Z,37.17
2019-03-28T18:56:00.034Z,36.40
2019-03-28T18:58:25.955Z,39.80
2019-03-28T19:00:52.256Z,39.97
2019-03-28T19:03:18.291Z,40.90
2019-03-28T19:05:44.247Z,44.87
2019-03-28T19:08:10.179Z,41.13
2019-03-28T19:10:36.244Z,39.23
2019-03-28T19:13:04.618Z,41.70
2019-03-28T19:15:30.252Z,41.40
2019-03-28T19:17:56.160Z,44.58
2019-03-28T19:20:22.120Z,49.83
2019-03-28T19:22:50.177Z,31.87
2019-03-28T19:25:16.213Z,38.57
2019-03-28T19:27:42.215Z,40.27
2019-03-28T19:30:09.203Z,35.93
2019-03-28T19:32:35.279Z,40.07
2019-03-28T19:35:03.369Z,45.77
2019-03-28T19:37:30.029Z,49.63
2019-03-28T19:39:55.864Z,62.30
2019-03-28T19:42:22.655Z,63.93
2019-03-28T19:44:49.806Z,57.00
2019-03-28T19:47:15.634Z,69.67
2019-03-28T19:49:41.706Z,79.80
2019-03-28T19:52:07.694Z,65.93
2019-03-28T19:54:33.821Z,61.73
2019-03-28T19:56:59.861Z,64.13
2019-03-28T19:59:26.027Z,70.97
2019-03-28T20:01:52.271Z,71.87
2019-03-28T20:04:18.089Z,75.93
2019-03-28T20:06:44.206Z,70.87
2019-03-28T20:09:16.208Z,68.40
2019-03-28T20:11:39.020Z,76.90
2019-03-28T20:14:05.203Z,66.93
2019-03-28T20:16:31.161Z,68.50
2019-03-28T20:18:57.147Z,72.83
2019-03-28T20:21:23.128Z,71.07
2019-03-28T20:23:49.215Z,81.97
2019-03-28T20:26:15.137Z,83.30
2019-03-28T20:28:41.192Z,85.43
2019-03-28T20:31:07.280Z,83.53
2019-03-28T20:33:33.316Z,87.43
2019-03-28T20:36:18.857Z,83.20
2019-03-28T20:38:27.272Z,78.63
2019-03-28T20:40:53.234Z,76.73
2019-03-28T20:43:19.165Z,71.30
2019-03-28T20:45:45.397Z,72.73
2019-03-28T20:48:11.432Z,72.57
2019-03-28T20:50:37.444Z,65.93
2019-03-28T20:53:03.549Z,76.40
2019-03-28T20:55:29.548Z,72.93
2019-03-28T21:00:36.750Z,84.17
2019-03-28T21:03:03.397Z,89.07
2019-03-28T21:05:30.918Z,86.57
2019-03-28T21:07:57.033Z,83.77
2019-03-28T21:10:23.991Z,73.90
2019-03-28T21:12:50.350Z,66.53
2019-03-28T21:15:16.317Z,72.90
2019-03-28T21:17:42.290Z,82.97
2019-03-28T21:20:08.441Z,84.27
2019-03-28T21:22:34.385Z,86.77
2019-03-28T21:25:00.381Z,87.47
2019-03-28T21:27:26.287Z,86.00
2019-03-28T21:29:52.389Z,92.63
2019-03-28T21:32:18.895Z,88.23
2019-03-28T21:34:45.030Z,86.27
2019-03-28T21:37:11.194Z,75.13
2019-03-28T21:39:39.945Z,97.70
2019-03-28T21:42:07.208Z,86.10
2019-03-28T21:44:33.063Z,71.30
2019-03-28T21:46:59.105Z,84.17
2019-03-28T21:49:24.975Z,76.00
2019-03-28T21:51:50.967Z,71.53
2019-03-28T21:54:16.914Z,74.73
2019-03-28T21:56:42.876Z,76.67
2019-03-28T21:59:09.006Z,77.07
2019-03-28T22:01:34.909Z,80.80
2019-03-28T22:04:00.729Z,82.93
2019-03-28T22:06:26.725Z,74.67
2019-03-28T22:08:52.583Z,79.13
2019-03-28T22:11:18.817Z,74.13
2019-03-28T22:13:44.767Z,67.33
2019-03-28T22:16:10.645Z,70.30
2019-03-28T22:18:36.484Z,79.13
2019-03-28T22:21:02.468Z,75.93
2019-03-28T22:23:30.497Z,85.57
2019-03-28T22:25:56.488Z,95.03
2019-03-28T22:28:22.466Z,87.50
2019-03-28T22:30:48.638Z,93.20
2019-03-28T22:33:15.773Z,95.70
2019-03-28T22:35:41.812Z,79.07
2019-03-28T22:38:07.828Z,78.60
2019-03-28T22:40:33.822Z,74.50
2019-03-28T22:42:59.718Z,67.13
2019-03-28T22:45:25.801Z,63.40
2019-03-28T22:47:51.694Z,59.73
2019-03-28T22:50:17.529Z,56.07
2019-03-28T22:52:43.705Z,56.00
2019-03-28T22:55:10.274Z,54.67
2019-03-28T22:57:36.250Z,52.37
2019-03-28T23:00:05.973Z,52.77
2019-03-28T23:02:31.829Z,51.50
2019-03-28T23:04:57.763Z,65.17
2019-03-28T23:07:23.607Z,83.27
2019-03-28T23:09:49.822Z,83.27
2019-03-28T23:12:16.403Z,88.83
2019-03-28T23:14:42.368Z,89.60
2019-03-28T23:17:08.408Z,83.27
2019-03-28T23:19:34.316Z,78.17
2019-03-28T23:22:00.154Z,74.37
2019-03-28T23:24:26.099Z,70.00
2019-03-28T23:26:52.059Z,68.80
2019-03-28T23:29:18.084Z,55.13
2019-03-28T23:31:43.923Z,57.07
2019-03-28T23:34:09.833Z,51.20
2019-03-28T23:36:35.672Z,50.50
2019-03-28T23:39:01.845Z,57.87
2019-03-28T23:41:27.738Z,57.57
2019-03-28T23:43:53.651Z,57.23
2019-03-28T23:46:19.508Z,60.53
2019-03-28T23:48:45.605Z,54.83
2019-03-28T23:51:11.561Z,56.30
2019-03-28T23:53:37.621Z,55.77
2019-03-28T23:56:03.508Z,60.03
2019-03-28T23:58:29.447Z,50.10
